Time;durP1;ratioP1;P1;durP2;ratioP2;P2;SDS_P1;SDS_P2;PMS_P1;PMS_P2;Temp;Humidity;BMP_temperature;BMP_pressure;BME280_temperature;BME280_humidity;BME280_pressure;Samples;Min_cycle;Max_cycle;Signal;HPM_P1;HPM_P2
2023/02/24 00:00:31;;;;;;;13.63;5.38;;;;;;;-6.45;45.37;99734.59;6107563;23;20025;-85
2023/02/24 00:03:09;;;;;;;12.93;5.57;;;;;;;-6.78;45.62;99676.16;6106942;23;20019;-83
2023/02/24 00:06:08;;;;;;;12.40;5.32;;;;;;;-6.50;45.70;99725.84;6082587;23;20021;-83
2023/02/24 00:08:57;;;;;;;11.27;5.10;;;;;;;-7.39;45.37;99580.69;6087820;23;20022;-82
2023/02/24 00:11:33;;;;;;;14.32;5.40;;;;;;;-7.21;45.80;99645.81;6107249;23;20045;-83
2023/02/24 00:14:08;;;;;;;16.08;5.22;;;;;;;-7.56;45.85;99583.09;6115090;23;20018;-82
2023/02/24 00:16:36;;;;;;;;;;;;;;;-6.76;46.23;99716.75;6092668;23;20045;-82
2023/02/24 00:19:23;;;;;;;11.13;4.70;;;;;;;-7.20;46.29;99642.50;6083591;23;19970;-83
2023/02/24 00:22:02;;;;;;;11.95;4.60;;;;;;;-6.81;45.70;99708.88;6059962;23;20069;-82
2023/02/24 00:24:38;;;;;;;12.75;4.82;;;;;;;-7.12;46.08;99651.38;6082893;23;20018;-83
2023/02/24 00:27:07;;;;;;;11.32;4.95;;;;;;;-7.63;45.92;99586.06;6082106;23;20025;-83
2023/02/24 00:29:49;;;;;;;15.80;5.25;;;;;;;-7.24;46.43;99625.38;6105816;23;20022;-85
2023/02/24 00:32:24;;;;;;;;;;;;;;;-6.70;46.45;99685.06;6084834;23;20082;-85
2023/02/24 00:34:58;;;;;;;11.70;4.93;;;;;;;-6.89;46.48;99659.47;6084865;23;20000;-82
2023/02/24 00:37:59;;;;;;;12.38;5.20;;;;;;;-7.83;46.10;99495.53;6109805;23;20022;-82
2023/02/24 00:40:29;;;;;;;10.55;4.60;;;;;;;-6.88;46.19;99686.53;6105648;23;20014;-82
2023/02/24 00:43:22;;;;;;;10.93;4.55;;;;;;;-7.90;46.32;99529.63;6084214;23;20097;-83
2023/02/24 00:46:01;;;;;;;12.83;4.50;;;;;;;-7.08;46.71;99642.34;6129474;23;20095;-84
2023/02/24 00:48:48;;;;;;;9.95;4.60;;;;;;;-7.47;46.48;99559.16;6057486;23;20024;-84
2023/02/24 00:51:37;;;;;;;14.38;4.97;;;;;;;-7.03;46.95;99634.25;6059085;23;20065;-83
2023/02/24 00:54:19;;;;;;;13.45;5.35;;;;;;;-7.16;46.58;99603.94;6105059;23;20026;-80
2023/02/24 00:57:20;;;;;;;12.18;5.10;;;;;;;-6.84;46.56;99658.09;6105929;23;20018;-80
2023/02/24 00:59:53;;;;;;;12.35;4.95;;;;;;;-7.41;45.99;99578.06;6084032;23;20483;-83
2023/02/24 01:02:27;;;;;;;11.07;4.85;;;;;;;-7.03;46.23;99631.72;6081316;23;20022;-84
2023/02/24 01:05:08;;;;;;;13.15;5.25;;;;;;;-7.42;46.56;99555.25;6080493;23;20065;-81
2023/02/24 01:07:56;;;;;;;12.07;5.32;;;;;;;-7.30;46.50;99555.94;6080044;23;20022;-81
2023/02/24 01:10:27;;;;;;;12.43;5.75;;;;;;;-6.70;46.35;99642.03;6107156;23;20368;-83
2023/02/24 01:13:02;;;;;;;11.52;4.70;;;;;;;-7.37;46.44;99512.53;6083162;23;20025;-84
2023/02/24 01:15:29;;;;;;;13.60;5.43;;;;;;;-7.04;46.28;99543.94;6107243;23;20166;-80
2023/02/24 01:18:04;;;;;;;12.48;4.50;;;;;;;-6.44;46.59;99624.06;6084398;23;20030;-84
2023/02/24 01:20:37;;;;;;;11.82;4.97;;;;;;;-6.42;46.17;99623.34;6106567;23;20018;-84
2023/02/24 01:23:06;;;;;;;12.40;4.80;;;;;;;-6.67;46.45;99585.66;6107282;23;20147;-85
2023/02/24 01:25:46;;;;;;;11.15;4.72;;;;;;;-6.49;45.98;99628.00;6107804;23;20026;-82
2023/02/24 01:28:16;;;;;;;10.98;5.05;;;;;;;-6.53;46.35;99622.75;6060196;23;20029;-82
2023/02/24 01:30:47;;;;;;;12.13;5.13;;;;;;;-7.12;45.99;99518.22;6108687;23;20022;-81
2023/02/24 01:33:20;;;;;;;13.10;5.60;;;;;;;-7.15;45.80;99525.63;6086022;23;20033;-82
2023/02/24 01:36:29;;;;;;;10.35;4.70;;;;;;;-7.37;46.09;99462.81;6111139;23;20022;-83
2023/02/24 01:39:13;;;;;;;13.20;5.18;;;;;;;-6.56;46.43;99588.78;6090562;23;20360;-80
2023/02/24 01:57:28;;;;;;;11.73;4.55;;;;;;;-6.68;45.87;99566.19;5600417;25;20494;-84
2023/02/24 02:25:53;;;;;;;12.82;4.43;;;;;;;-6.75;45.89;99532.06;6120542;23;20036;-83
2023/02/24 02:28:42;;;;;;;11.63;4.72;;;;;;;-6.76;45.80;99526.91;6121904;23;20052;-81
2023/02/24 02:31:30;;;;;;;10.43;3.92;;;;;;;-6.78;45.93;99526.84;6146332;23;20017;-84
2023/02/24 02:34:30;;;;;;;11.60;4.85;;;;;;;-7.75;45.98;99365.44;6119033;23;20028;-84
2023/02/24 02:37:40;;;;;;;12.32;4.47;;;;;;;-7.77;45.80;99359.44;6138754;23;20043;-82
2023/02/24 02:40:22;;;;;;;10.70;4.65;;;;;;;-7.32;45.95;99451.31;6117194;23;20021;-82
2023/02/24 02:43:24;;;;;;;14.77;5.20;;;;;;;-6.94;45.95;99493.84;6117428;23;20013;-80
2023/02/24 02:46:16;;;;;;;8.90;3.75;;;;;;;-6.92;45.73;99497.34;6119300;23;20021;-83
2023/02/24 02:49:05;;;;;;;11.85;4.82;;;;;;;-6.90;45.95;99488.19;6121077;23;20024;-81
2023/02/24 02:51:42;;;;;;;10.93;4.55;;;;;;;-7.41;45.95;99385.06;6117539;23;20544;-83
2023/02/24 02:54:39;;;;;;;10.70;4.03;;;;;;;-7.35;45.91;99369.34;6116913;23;20069;-84
2023/02/24 02:57:37;;;;;;;11.07;4.00;;;;;;;-7.53;45.80;99343.91;6141298;23;20017;-83
2023/02/24 03:00:20;;;;;;;9.60;3.67;;;;;;;-7.16;46.09;99399.03;6117381;23;20037;-88
2023/02/24 03:03:25;;;;;;;9.02;4.45;;;;;;;-6.77;45.81;99456.84;6092709;23;20383;-84
2023/02/24 03:06:19;;;;;;;10.40;4.13;;;;;;;-6.73;45.67;99452.00;6074205;23;20048;-82
2023/02/24 03:09:23;;;;;;;8.70;3.83;;;;;;;-6.68;45.66;99435.41;6125169;23;20021;-83
2023/02/24 03:12:01;;;;;;;8.50;4.05;;;;;;;-6.96;45.69;99373.22;6093697;23;20033;-83
2023/02/24 03:14:49;;;;;;;9.00;4.03;;;;;;;-6.71;45.63;99402.34;6118240;23;20072;-86
2023/02/24 03:17:24;;;;;;;10.32;4.10;;;;;;;-6.74;45.75;99360.81;6142065;23;20024;-85
2023/02/24 03:20:11;;;;;;;8.48;3.65;;;;;;;-6.49;45.45;99423.75;6092555;23;20021;-85
2023/02/24 03:23:04;;;;;;;7.95;4.20;;;;;;;-6.76;45.45;99387.72;6166088;23;20021;-85
2023/02/24 03:25:54;;;;;;;10.23;3.92;;;;;;;-6.90;45.11;99347.38;6139918;23;20136;-84
2023/02/24 03:28:50;;;;;;;8.65;3.65;;;;;;;-6.60;45.39;99391.94;6117787;23;20028;-83
2023/02/24 03:31:47;;;;;;;9.95;4.18;;;;;;;-6.78;45.31;99362.34;6142536;23;20054;-84
2023/02/24 03:35:16;;;;;;;9.35;3.72;;;;;;;-6.63;45.58;99382.53;6020153;23;20023;-84
2023/02/24 03:37:48;;;;;;;10.02;3.83;;;;;;;-6.59;45.46;99389.47;6108048;23;20026;-83
2023/02/24 03:44:09;;;;;;;8.43;3.53;;;;;;;-7.63;45.37;99226.28;6096734;23;20032;-84
2023/02/24 03:46:41;;;;;;;10.68;4.43;;;;;;;-7.26;45.63;99299.94;6118461;23;20021;-85
2023/02/24 03:49:15;;;;;;;9.05;4.22;;;;;;;-6.83;45.50;99364.59;6169481;23;20013;-85
2023/02/24 03:52:20;;;;;;;12.55;4.82;;;;;;;-7.13;45.48;99290.47;6096700;23;20021;-84
2023/02/24 03:55:29;;;;;;;8.30;3.80;;;;;;;-6.81;45.56;99349.50;6092720;23;20025;-85
2023/02/24 03:58:55;;;;;;;13.40;4.10;;;;;;;-7.05;45.73;99306.03;6105858;23;20017;-85
2023/02/24 04:02:06;;;;;;;10.35;4.00;;;;;;;-6.89;45.76;99312.78;6142585;23;20028;-85
2023/02/24 04:05:00;;;;;;;7.70;4.03;;;;;;;-6.92;45.75;99320.22;6169148;23;20021;-85
2023/02/24 04:08:10;;;;;;;8.10;3.85;;;;;;;-6.90;45.48;99304.34;6124608;23;20013;-83
2023/02/24 04:11:30;;;;;;;;;;;;;;;;;;;;;
2023/02/24 04:14:41;;;;;;;7.20;4.13;;;;;;;-7.23;45.34;99270.53;6145533;23;20021;-85
2023/02/24 04:17:50;;;;;;;9.70;4.13;;;;;;;-6.92;45.80;99305.03;6143586;23;20050;-87
2023/02/24 04:20:52;;;;;;;8.98;3.53;;;;;;;-7.40;45.60;99207.31;6088318;23;20024;-87
2023/02/24 04:23:30;;;;;;;9.52;3.80;;;;;;;-7.16;45.68;99229.59;6093868;23;20013;-82
2023/02/24 04:26:04;;;;;;;7.63;3.72;;;;;;;-7.17;45.68;99235.47;6119912;23;20033;-85
2023/02/24 04:28:35;;;;;;;8.63;3.67;;;;;;;-7.46;45.88;99167.38;6148848;23;20018;-83
2023/02/24 04:31:16;;;;;;;8.65;3.70;;;;;;;-6.69;46.06;99278.41;6101701;23;20017;-85
2023/02/24 04:37:07;;;;;;;7.60;3.45;;;;;;;-6.53;45.84;99273.34;6168548;23;20086;-86
2023/02/24 04:39:51;;;;;;;8.63;3.75;;;;;;;-6.72;45.65;99233.56;6102165;23;20060;-83
2023/02/24 04:42:28;;;;;;;12.88;4.28;;;;;;;-6.63;45.37;99230.66;6117060;23;20040;-84
2023/02/24 04:45:08;;;;;;;14.18;4.32;;;;;;;-7.18;45.30;99138.47;6168360;23;20006;-86
2023/02/24 04:47:58;;;;;;;8.43;4.32;;;;;;;-6.48;45.38;99287.91;6122855;23;20021;-85
2023/02/24 04:51:31;;;;;;;;;;;;;;;-6.53;45.77;99265.75;6169109;23;20375;-85
2023/02/24 04:56:50;;;;;;;12.60;3.97;;;;;;;-7.24;45.69;99115.38;6169558;23;20017;-85
2023/02/24 04:59:22;;;;;;;9.82;3.75;;;;;;;-6.60;45.56;99199.53;6169519;23;20040;-86
2023/02/24 05:01:51;;;;;;;10.93;3.88;;;;;;;-6.70;45.85;99188.94;6143950;23;20041;-85
2023/02/24 05:04:37;;;;;;;11.05;3.65;;;;;;;-7.06;46.04;99124.72;6144300;23;20067;-87
2023/02/24 05:07:21;;;;;;;9.20;5.28;;;;;;;-7.02;45.52;99108.88;6141080;23;20017;-88
2023/02/24 05:10:14;;;;;;;10.82;3.72;;;;;;;-7.16;45.70;99095.53;6124229;23;20013;-83
2023/02/24 05:12:45;;;;;;;9.57;3.97;;;;;;;-6.75;45.70;99157.50;6170106;23;20459;-84
2023/02/24 05:15:13;;;;;;;10.02;4.40;;;;;;;-6.71;45.49;99145.84;6119358;23;20029;-87
2023/02/24 05:18:00;;;;;;;9.52;4.13;;;;;;;-6.20;45.68;99231.91;6148646;23;20028;-84
2023/02/24 05:23:58;;;;;;;8.82;3.65;;;;;;;-6.99;45.65;99102.34;6116493;23;20017;-87
2023/02/24 05:26:45;;;;;;;11.68;4.38;;;;;;;-6.77;45.77;99123.66;6101483;23;20049;-84
2023/02/24 05:29:34;;;;;;;8.25;3.53;;;;;;;-6.60;45.83;99129.50;6122604;23;20022;-84
2023/02/24 05:32:05;;;;;;;10.30;4.60;;;;;;;-6.54;46.22;99132.34;6140409;23;20018;-86
2023/02/24 05:34:47;;;;;;;9.02;3.92;;;;;;;-6.31;45.77;99152.00;6115215;23;20010;-84
2023/02/24 05:37:24;;;;;;;11.68;4.50;;;;;;;-6.19;45.62;99139.91;6096159;23;20005;-84
2023/02/24 05:39:59;;;;;;;11.05;4.40;;;;;;;-6.27;45.86;99113.34;6144699;23;20052;-83
2023/02/24 05:42:26;;;;;;;10.10;4.80;;;;;;;-6.60;45.46;99047.66;6121824;23;20021;-83
2023/02/24 05:45:12;;;;;;;10.57;4.40;;;;;;;-5.77;45.19;99180.69;6148663;23;20116;-86
2023/02/24 05:48:02;;;;;;;10.73;4.40;;;;;;;-6.02;45.64;99122.09;6145640;23;20064;-85
2023/02/24 05:50:42;;;;;;;10.15;4.47;;;;;;;-6.36;45.61;99031.09;6139027;23;20787;-84
2023/02/24 05:53:47;;;;;;;11.43;4.95;;;;;;;-5.81;45.35;99139.94;6138163;23;20014;-87
2023/02/24 05:56:47;;;;;;;8.55;3.63;;;;;;;-6.36;45.48;99013.38;6052682;23;20021;-86
2023/02/24 05:59:20;;;;;;;10.25;4.43;;;;;;;-6.17;45.67;99053.84;6116662;23;20400;-86
2023/02/24 06:05:41;;;;;;;10.63;4.60;;;;;;;-5.80;45.59;99079.16;6116112;23;20030;-85
2023/02/24 06:08:35;;;;;;;12.43;4.43;;;;;;;-5.43;45.16;99127.25;6139239;23;20029;-83
2023/02/24 06:11:19;;;;;;;12.90;4.68;;;;;;;-5.77;45.49;99053.97;6090909;23;20077;-84
2023/02/24 06:14:48;;;;;;;12.88;4.90;;;;;;;-5.73;45.28;99039.75;6117131;23;20459;-86
2023/02/24 06:17:35;;;;;;;11.57;4.60;;;;;;;-5.33;45.04;99098.94;6128149;23;20080;-81
2023/02/24 06:20:13;;;;;;;11.63;5.10;;;;;;;-5.23;45.13;99123.94;6117993;23;20024;-83
2023/02/24 06:22:58;;;;;;;10.40;4.90;;;;;;;-5.22;45.34;99129.84;6139780;23;20017;-85
2023/02/24 06:25:29;;;;;;;12.38;4.97;;;;;;;-5.26;44.82;99128.88;6141877;23;20060;-84
2023/02/24 06:27:58;;;;;;;14.23;5.47;;;;;;;-5.95;45.07;99005.00;6118989;23;20021;-85
2023/02/24 06:31:55;;;;;;;;;;;;;;;;;;;;;
2023/02/24 06:34:55;;;;;;;;;;;;;;;;;;;;;
2023/02/24 06:38:38;;;;;;;11.80;5.32;;;;;;;-5.22;45.17;99062.25;6023726;23;20079;-86
2023/02/24 06:41:41;;;;;;;14.07;5.63;;;;;;;-5.62;45.28;98995.47;6005100;23;20102;-82
2023/02/24 06:44:16;;;;;;;10.50;5.25;;;;;;;-5.58;45.42;98978.69;6021269;23;20075;-85
2023/02/24 06:46:49;;;;;;;12.05;5.72;;;;;;;-5.43;45.41;99003.84;6010972;23;20038;-86
2023/02/24 06:49:28;;;;;;;12.40;5.57;;;;;;;-5.00;45.43;99060.59;6113001;23;20021;-85
2023/02/24 06:51:56;;;;;;;10.68;5.35;;;;;;;-4.99;45.89;99047.09;6158604;23;20013;-83
2023/02/24 06:54:29;;;;;;;13.27;5.45;;;;;;;-5.16;45.61;99009.19;6137413;23;20068;-84
2023/02/24 06:56:58;;;;;;;14.70;5.43;;;;;;;-4.91;45.58;99044.88;6131953;23;20455;-86
2023/02/24 06:59:27;;;;;;;14.30;6.07;;;;;;;-5.50;45.94;98958.72;6107898;23;20032;-84
2023/02/24 07:02:18;;;;;;;14.30;5.72;;;;;;;-4.69;46.05;99077.94;6163827;23;20020;-84
2023/02/24 07:04:44;;;;;;;14.27;6.05;;;;;;;-5.18;46.75;99004.88;6131086;23;20100;-86
2023/02/24 07:07:13;;;;;;;12.90;5.57;;;;;;;-5.63;46.80;98930.34;6130168;23;20039;-82
2023/02/24 07:10:07;;;;;;;12.73;5.93;;;;;;;-5.51;46.67;98940.13;6163292;23;20021;-86
2023/02/24 07:12:33;;;;;;;13.95;6.20;;;;;;;-5.55;46.88;98937.41;6141915;23;20021;-86
2023/02/24 07:15:12;;;;;;;13.35;6.05;;;;;;;-5.49;47.36;98923.31;6148039;23;20061;-87
2023/02/24 07:18:13;;;;;;;;;;;;;;;-4.72;47.61;99056.63;6112050;23;20039;-85
2023/02/24 07:20:48;;;;;;;13.88;5.85;;;;;;;-4.73;47.95;99049.81;6110819;23;19980;-90
2023/02/24 07:23:20;;;;;;;12.88;5.70;;;;;;;-5.40;48.59;98929.53;6132534;23;20025;-83
2023/02/24 07:25:49;;;;;;;15.90;6.13;;;;;;;-4.92;47.98;98990.69;6128626;23;20371;-84
2023/02/24 07:28:37;;;;;;;;;;;;;;;;;;;;;
2023/02/24 07:31:07;;;;;;;10.65;5.47;;;;;;;-5.09;49.10;98935.88;6130224;23;20017;-86
2023/02/24 07:33:43;;;;;;;16.90;6.10;;;;;;;-5.21;48.60;98903.25;6103761;23;20073;-83
2023/02/24 07:36:17;;;;;;;15.95;6.43;;;;;;;-4.52;49.29;98982.94;6126877;23;20487;-87
2023/02/24 07:38:47;;;;;;;16.42;7.03;;;;;;;-4.51;49.67;98961.78;6126774;23;20026;-83
2023/02/24 07:41:18;;;;;;;14.55;6.30;;;;;;;-4.43;49.24;98914.69;6126697;23;20018;-84
2023/02/24 07:43:45;;;;;;;16.00;6.70;;;;;;;-3.84;49.50;98998.13;6127155;23;20033;-83
2023/02/24 07:46:31;;;;;;;13.38;6.00;;;;;;;-3.82;50.20;98986.31;6125934;23;20018;-82
2023/02/24 07:49:00;;;;;;;13.57;6.82;;;;;;;-3.64;50.26;99011.56;6125366;23;20017;-83
2023/02/24 07:51:26;;;;;;;17.90;7.68;;;;;;;-4.22;50.59;98894.28;6106427;23;20048;-84
2023/02/24 07:54:00;;;;;;;15.40;6.82;;;;;;;-3.42;50.24;99002.97;6137999;23;20014;-83
2023/02/24 07:56:55;;;;;;;14.27;6.57;;;;;;;-3.73;50.40;98943.44;6131319;23;20021;-81
2023/02/24 07:59:53;;;;;;;16.30;7.10;;;;;;;-3.40;50.44;98991.19;6131154;23;20041;-83
2023/02/24 08:02:51;;;;;;;;;;;;;;;;;;;;;
2023/02/24 08:05:18;;;;;;;14.75;6.65;;;;;;;-3.30;50.77;98994.91;6136363;23;20073;-82
2023/02/24 08:07:48;;;;;;;15.75;6.93;;;;;;;-3.38;50.35;98987.00;6135963;23;20092;-81
2023/02/24 08:10:24;;;;;;;13.13;6.22;;;;;;;-3.42;50.71;98967.34;6102154;23;20028;-80
2023/02/24 08:13:10;;;;;;;15.77;7.03;;;;;;;-3.45;51.11;98954.56;6077479;23;20018;-82
2023/02/24 08:15:55;;;;;;;20.10;6.78;;;;;;;-3.91;50.60;98869.91;6077904;23;20021;-80
2023/02/24 08:18:36;;;;;;;17.33;6.97;;;;;;;-3.12;50.82;98988.72;6103510;23;20077;-85
2023/02/24 08:21:52;;;;;;;16.65;7.20;;;;;;;-3.24;51.13;98940.81;6136882;23;20253;-83
2023/02/24 08:24:28;;;;;;;15.75;6.70;;;;;;;-3.30;50.85;98938.06;6117508;23;20739;-81
2023/02/24 08:27:07;;;;;;;17.25;7.50;;;;;;;-2.98;51.21;98956.06;6139595;23;20037;-80
2023/02/24 08:29:39;;;;;;;16.88;6.82;;;;;;;-2.91;51.26;98966.50;6135526;23;20547;-82
2023/02/24 08:32:12;;;;;;;20.92;8.00;;;;;;;-2.89;51.05;98935.97;6104925;23;20068;-83
2023/02/24 08:35:02;;;;;;;16.45;6.88;;;;;;;-3.07;51.22;98911.69;6127995;23;20044;-82
2023/02/24 08:38:17;;;;;;;21.83;7.57;;;;;;;-3.18;51.10;98893.53;6126709;23;20037;-84
2023/02/24 08:41:18;;;;;;;18.98;6.60;;;;;;;-2.82;51.85;98945.56;6096196;23;20372;-82
2023/02/24 08:43:48;;;;;;;16.17;6.88;;;;;;;-2.93;50.87;98922.28;6130140;23;20028;-82
2023/02/24 08:46:24;;;;;;;18.67;7.28;;;;;;;-2.89;51.45;98903.75;6078103;23;20018;-84
2023/02/24 08:49:15;;;;;;;21.08;7.85;;;;;;;-2.68;51.33;98945.97;6126234;23;20486;-83
2023/02/24 08:51:51;;;;;;;16.60;7.30;;;;;;;-2.93;51.39;98889.19;6122500;23;20025;-81
2023/02/24 08:54:31;;;;;;;15.68;7.22;;;;;;;-2.79;51.80;98916.75;6124853;23;20025;-82
2023/02/24 08:57:55;;;;;;;16.10;6.63;;;;;;;-3.11;51.19;98861.47;6127057;23;20053;-84
2023/02/24 09:00:41;;;;;;;15.20;7.20;;;;;;;-2.72;52.01;98929.72;6099809;23;20021;-82
2023/02/24 09:03:28;;;;;;;16.27;7.18;;;;;;;-2.76;51.38;98940.63;6121794;23;20433;-83
2023/02/24 09:06:15;;;;;;;15.77;7.15;;;;;;;-2.64;51.95;98944.38;6097440;23;20013;-82
2023/02/24 09:09:16;;;;;;;18.02;7.43;;;;;;;-2.95;51.46;98887.41;6122842;23;20471;-87
2023/02/24 09:11:36;;;;;;;21.38;8.73;;;;;;;-2.98;52.39;98877.16;6122234;23;20025;-82
2023/02/24 09:14:21;;;;;;;14.48;7.22;;;;;;;-2.74;51.85;98921.16;6102250;23;20018;-84
2023/02/24 09:17:09;;;;;;;16.98;7.38;;;;;;;-3.25;52.31;98814.38;6122607;23;20033;-84
2023/02/24 09:23:29;;;;;;;19.35;7.10;;;;;;;-3.04;52.37;98788.69;6097339;23;20018;-85
2023/02/24 09:26:19;;;;;;;15.30;7.20;;;;;;;-2.60;52.86;98834.97;6120850;23;20029;-84
2023/02/24 09:28:55;;;;;;;16.23;7.10;;;;;;;-2.43;52.16;98858.38;6122270;23;20014;-84
2023/02/24 09:32:22;;;;;;;17.58;7.45;;;;;;;-2.53;52.68;98835.16;6117530;23;20018;-83
2023/02/24 09:35:07;;;;;;;17.15;7.40;;;;;;;-2.16;52.57;98864.19;6120683;23;20037;-85
2023/02/24 09:44:54;;;;;;;18.60;8.15;;;;;;;-2.17;52.17;98811.47;6124618;23;20403;-84
2023/02/24 09:48:00;;;;;;;18.90;7.82;;;;;;;-1.47;52.87;98885.53;6076288;23;20045;-80
2023/02/24 09:54:29;;;;;;;15.48;7.43;;;;;;;-1.33;52.34;98844.19;6123593;23;20080;-83
2023/02/24 09:57:19;;;;;;;18.65;7.97;;;;;;;-1.14;52.78;98859.09;6131488;23;20077;-82
2023/02/24 09:59:59;;;;;;;18.98;8.75;;;;;;;-0.99;53.03;98861.13;6129671;23;20018;-83
2023/02/24 10:03:18;;;;;;;16.90;7.85;;;;;;;-1.71;51.95;98740.38;6123451;23;20672;-85
2023/02/24 10:10:18;;;;;;;18.23;7.90;;;;;;;-0.81;52.37;98847.91;5984016;23;20028;-83
2023/02/24 10:13:13;;;;;;;18.77;8.57;;;;;;;-0.76;51.91;98842.88;6120857;23;20502;-80
2023/02/24 10:22:21;;;;;;;16.77;8.45;;;;;;;-0.85;52.27;98830.78;6096889;23;20022;-82
2023/02/24 10:25:39;;;;;;;17.40;8.43;;;;;;;-0.76;52.27;98827.56;6104548;23;20025;-84
2023/02/24 10:28:50;;;;;;;17.25;8.30;;;;;;;-0.68;52.26;98820.91;6128106;23;20478;-86
2023/02/24 10:31:46;;;;;;;17.40;7.97;;;;;;;-1.28;52.26;98703.06;6101864;23;20017;-83
2023/02/24 10:34:25;;;;;;;16.63;7.93;;;;;;;-0.83;52.09;98774.63;6133657;23;20018;-84
2023/02/24 10:36:56;;;;;;;16.58;8.30;;;;;;;-1.22;52.15;98692.97;6105522;23;20491;-83
2023/02/24 10:39:24;;;;;;;14.88;8.02;;;;;;;-0.41;52.45;98794.19;6107154;23;20014;-81
2023/02/24 10:42:18;;;;;;;16.40;7.78;;;;;;;-0.98;52.12;98704.50;6109283;23;20033;-81
2023/02/24 10:44:52;;;;;;;17.67;8.57;;;;;;;-0.46;52.92;98762.56;6130737;23;20021;-83
2023/02/24 10:47:29;;;;;;;18.00;8.70;;;;;;;-0.08;52.68;98793.06;6133608;23;20021;-84
2023/02/24 10:50:53;;;;;;;16.80;9.10;;;;;;;-0.36;52.05;98761.03;6130516;23;20029;-84
2023/02/24 10:54:08;;;;;;;21.33;9.80;;;;;;;-0.59;52.83;98696.72;6038455;23;20032;-85
2023/02/24 10:56:54;;;;;;;19.00;9.65;;;;;;;-0.02;52.77;98780.41;6138838;23;20483;-85
2023/02/24 10:59:57;;;;;;;21.77;10.00;;;;;;;-0.64;51.82;98669.38;6108807;23;20101;-86
2023/02/24 11:02:55;;;;;;;18.80;8.60;;;;;;;-0.21;52.43;98763.00;6160601;23;20068;-84
2023/02/24 11:05:55;;;;;;;18.58;9.38;;;;;;;-0.19;52.43;98741.75;6135925;23;20037;-83
2023/02/24 11:19:25;;;;;;;16.45;7.75;;;;;;;-0.33;52.23;98695.47;5994112;23;20079;-80
2023/02/24 11:23:18;;;;;;;;;;;;;;;;;;;;;
2023/02/24 11:26:48;;;;;;;17.83;8.50;;;;;;;-0.74;51.96;98641.94;6016741;23;20034;-82
2023/02/24 11:30:05;;;;;;;25.38;11.98;;;;;;;-0.32;52.39;98715.09;6103868;23;20041;-85
2023/02/24 11:33:26;;;;;;;25.17;7.80;;;;;;;-0.29;52.24;98756.88;6156283;23;20017;-85
2023/02/24 11:36:22;;;;;;;18.10;7.75;;;;;;;-0.30;52.34;98753.50;6154661;23;20041;-83
2023/02/24 11:39:44;;;;;;;21.20;8.52;;;;;;;-0.58;52.83;98681.41;6128399;23;20022;-85
2023/02/24 11:42:22;;;;;;;17.83;8.32;;;;;;;-0.22;51.99;98745.94;6016563;23;20030;-84
2023/02/24 11:45:59;;;;;;;20.75;8.93;;;;;;;-0.12;53.10;98734.19;5969330;23;20102;-83
2023/02/24 11:49:33;;;;;;;16.50;7.80;;;;;;;-0.58;52.49;98642.22;5846139;24;20022;-84
2023/02/24 11:52:22;;;;;;;17.08;8.43;;;;;;;-0.97;53.02;98616.81;5799703;24;20024;-85
2023/02/24 11:55:27;;;;;;;18.23;8.57;;;;;;;-0.78;53.13;98660.63;5901490;24;20019;-83
2023/02/24 11:58:07;;;;;;;15.85;8.02;;;;;;;-0.98;52.97;98617.66;5923142;24;20077;-82
2023/02/24 12:04:16;;;;;;;15.57;7.22;;;;;;;-0.46;52.69;98716.56;5921031;24;20056;-83
2023/02/24 12:15:32;;;;;;;15.82;7.82;;;;;;;-1.18;53.09;98695.56;6039209;23;20113;-83
2023/02/24 12:18:34;;;;;;;17.58;7.63;;;;;;;-0.88;53.48;98712.34;6104405;23;20028;-83
2023/02/24 12:22:08;;;;;;;16.10;7.55;;;;;;;-1.29;53.27;98614.53;6090386;23;20029;-83
2023/02/24 12:25:30;;;;;;;;;;;;;;;;;;;;;
2023/02/24 12:29:04;;;;;;;15.60;7.25;;;;;;;-1.37;53.68;98610.97;6098336;23;20034;-85
2023/02/24 12:37:15;;;;;;;16.65;8.07;;;;;;;-0.76;53.74;98699.81;5908914;24;20065;-85
2023/02/24 12:40:17;;;;;;;19.95;8.73;;;;;;;-0.66;53.42;98696.59;5961787;23;20022;-81
2023/02/24 12:43:00;;;;;;;16.23;7.55;;;;;;;-1.21;53.76;98610.41;6048162;23;20390;-83
2023/02/24 12:45:52;;;;;;;16.83;7.90;;;;;;;-1.03;53.88;98629.50;6123046;23;20026;-80
2023/02/24 12:49:26;;;;;;;17.30;8.05;;;;;;;-0.86;53.54;98687.69;6113105;23;20017;-82
2023/02/24 12:52:47;;;;;;;17.60;8.85;;;;;;;-1.03;53.52;98703.56;6124272;23;20010;-82
2023/02/24 13:05:00;;;;;;;16.35;8.23;;;;;;;-0.84;54.36;98670.72;6132140;23;20079;-83
2023/02/24 13:08:24;;;;;;;16.88;7.95;;;;;;;-0.84;54.35;98668.16;6115700;23;20013;-87
2023/02/24 13:21:31;;;;;;;;;;;;;;;;;;;;;
2023/02/24 13:25:37;;;;;;;;;;;;;;;;;;;;;
2023/02/24 13:28:40;;;;;;;16.58;7.75;;;;;;;-1.28;53.95;98579.66;5889636;24;20030;-84
2023/02/24 13:31:11;;;;;;;16.17;7.63;;;;;;;-1.06;53.82;98622.63;5904234;24;20024;-81
2023/02/24 13:33:44;;;;;;;16.52;7.82;;;;;;;-0.95;54.09;98663.69;5957511;24;20012;-84
2023/02/24 13:37:05;;;;;;;17.83;7.95;;;;;;;-1.72;54.57;98544.78;6046492;23;20020;-82
2023/02/24 13:39:45;;;;;;;14.27;7.60;;;;;;;-1.20;54.30;98601.09;6125576;23;20063;-83
2023/02/24 13:42:33;;;;;;;18.13;8.35;;;;;;;-1.44;54.17;98563.19;6126682;23;20057;-86
2023/02/24 13:45:41;;;;;;;20.08;8.77;;;;;;;-0.89;54.90;98646.78;6153419;23;20077;-83
2023/02/24 13:48:59;;;;;;;18.73;7.63;;;;;;;-1.09;54.76;98621.72;6125840;23;20024;-82
2023/02/24 13:52:00;;;;;;;17.98;8.43;;;;;;;-1.42;54.82;98566.59;6130259;23;20022;-83
2023/02/24 13:55:42;;;;;;;;;;;;;;;;;;;;;
2023/02/24 13:58:45;;;;;;;17.17;7.65;;;;;;;-1.14;54.58;98639.50;6142955;23;20021;-81
2023/02/24 14:06:15;;;;;;;17.17;7.43;;;;;;;-1.34;54.58;98611.03;6080827;23;20038;-84
2023/02/24 14:13:43;;;;;;;;;;;;;;;-1.12;54.72;98634.41;5989789;24;20015;-83
2023/02/24 14:16:50;;;;;;;16.50;7.60;;;;;;;-1.04;55.47;98627.78;5945433;24;19923;-83
2023/02/24 14:19:18;;;;;;;18.20;8.43;;;;;;;-1.04;55.14;98632.00;6003749;23;20019;-84
2023/02/24 14:22:23;;;;;;;17.23;8.70;;;;;;;-1.44;55.13;98556.38;6086664;23;20018;-81
2023/02/24 14:25:14;;;;;;;14.98;7.85;;;;;;;-0.95;54.87;98632.19;6089921;23;20150;-83
2023/02/24 14:28:50;;;;;;;15.88;8.23;;;;;;;-1.70;55.01;98522.72;6057300;23;20041;-85
2023/02/24 14:31:32;;;;;;;18.08;8.68;;;;;;;-1.52;55.16;98563.91;6054096;23;20018;-86
2023/02/24 14:37:53;;;;;;;17.20;7.95;;;;;;;-1.29;55.32;98600.91;6074356;23;20042;-82
2023/02/24 14:40:24;;;;;;;16.77;8.32;;;;;;;-1.39;55.62;98587.97;6083981;23;20018;-84
2023/02/24 14:42:54;;;;;;;;;;;;;;;-1.21;55.67;98618.06;6085188;23;20014;-84
2023/02/24 14:45:27;;;;;;;17.80;8.73;;;;;;;-1.21;56.03;98630.84;6058938;23;19917;-84
2023/02/24 14:47:58;;;;;;;17.02;8.68;;;;;;;-1.24;55.97;98618.03;6106346;23;20022;-82
2023/02/24 14:50:35;;;;;;;20.05;8.43;;;;;;;-1.78;55.67;98535.31;6059637;23;20435;-84
2023/02/24 14:53:26;;;;;;;21.50;9.85;;;;;;;-1.47;55.75;98583.53;6105310;23;20101;-83
2023/02/24 14:59:44;;;;;;;19.63;9.55;;;;;;;-1.46;55.89;98582.72;6071333;23;20369;-81
2023/02/24 15:02:43;;;;;;;19.08;9.02;;;;;;;-1.34;56.42;98598.25;6056020;23;20057;-81
2023/02/24 15:05:26;;;;;;;19.95;9.40;;;;;;;-1.35;56.38;98629.72;5966747;24;20426;-82
2023/02/24 15:09:20;;;;;;;20.55;9.18;;;;;;;-1.42;56.87;98618.53;6079520;23;20046;-85
2023/02/24 15:12:59;;;;;;;17.77;9.32;;;;;;;-1.47;56.62;98620.13;6087716;23;20019;-83
2023/02/24 15:22:12;;;;;;;17.65;9.57;;;;;;;-2.06;57.09;98521.09;5965722;23;20027;-83
2023/02/24 15:30:27;;;;;;;18.52;9.18;;;;;;;-1.77;57.10;98564.22;5867752;24;20024;-83
2023/02/24 15:37:44;;;;;;;22.75;10.65;;;;;;;-1.97;57.54;98550.22;5991453;24;20016;-84
2023/02/24 15:44:29;;;;;;;21.05;9.40;;;;;;;-1.67;57.80;98606.97;5958333;24;20024;-81
2023/02/24 15:47:59;;;;;;;20.08;9.05;;;;;;;-1.63;58.18;98616.38;5935513;24;20090;-80
2023/02/24 15:52:02;;;;;;;21.92;9.63;;;;;;;-1.63;58.75;98615.53;5966555;23;20113;-81
2023/02/24 15:55:10;;;;;;;21.30;9.52;;;;;;;-1.90;58.72;98573.28;6017576;23;20023;-83
2023/02/24 15:57:54;;;;;;;20.02;9.63;;;;;;;-2.16;58.29;98541.31;5998000;23;20083;-82
2023/02/24 16:00:32;;;;;;;23.25;10.27;;;;;;;-2.00;59.51;98552.72;5995050;23;20023;-82
2023/02/24 16:03:06;;;;;;;20.42;9.00;;;;;;;-1.75;59.00;98578.72;5996307;23;20027;-78
2023/02/24 16:05:56;;;;;;;18.08;9.38;;;;;;;-1.70;58.86;98589.03;6019379;23;20050;-82
2023/02/24 16:09:18;;;;;;;19.02;9.20;;;;;;;-2.07;59.54;98537.22;6064616;23;20023;-84
2023/02/24 16:12:41;;;;;;;22.17;9.50;;;;;;;-1.59;59.34;98596.91;6056511;23;20525;-82
2023/02/24 16:15:44;;;;;;;24.48;9.43;;;;;;;-2.26;59.46;98488.41;6022415;23;20015;-83
2023/02/24 16:18:35;;;;;;;23.13;10.27;;;;;;;-2.20;59.04;98477.47;6033460;23;20023;-81